sensor_id;sensor_type;location;lat;lon;timestamp;temperature;humidity
19734;DHT22;10018;51.230;7.860;2024-03-23T00:53:58;7.30;99.90
19734;DHT22;10018;51.230;7.860;2024-03-23T00:56:24;7.30;99.90
19734;DHT22;10018;51.230;7.860;2024-03-23T00:58:49;7.30;99.90
19734;DHT22;10018;51.230;7.860;2024-03-23T01:01:15;7.30;99.90
19734;DHT22;10018;51.230;7.860;2024-03-23T01:03:41;7.30;99.90
19734;DHT22;10018;51.230;7.860;2024-03-23T01:06:06;7.20;99.90
19734;DHT22;10018;51.230;7.860;2024-03-23T01:08:32;7.20;99.90
19734;DHT22;10018;51.230;7.860;2024-03-23T01:10:59;7.20;99.90
19734;DHT22;10018;51.230;7.860;2024-03-23T01:13:25;7.30;99.90
19734;DHT22;10018;51.230;7.860;2024-03-23T01:15:52;7.30;99.90
19734;DHT22;10018;51.230;7.860;2024-03-23T01:18:21;7.30;99.90
19734;DHT22;10018;51.230;7.860;2024-03-23T01:20:47;7.20;99.90
19734;DHT22;10018;51.230;7.860;2024-03-23T01:23:15;7.20;99.90
19734;DHT22;10018;51.230;7.860;2024-03-23T01:25:41;7.20;99.90
19734;DHT22;10018;51.230;7.860;2024-03-23T01:28:07;7.10;99.90
19734;DHT22;10018;51.230;7.860;2024-03-23T01:30:33;7.10;99.90
19734;DHT22;10018;51.230;7.860;2024-03-23T01:33:02;7.10;99.90
19734;DHT22;10018;51.230;7.860;2024-03-23T01:35:30;7.00;99.90
19734;DHT22;10018;51.230;7.860;2024-03-23T01:37:56;7.00;99.90
19734;DHT22;10018;51.230;7.860;2024-03-23T01:40:21;7.00;99.90
19734;DHT22;10018;51.230;7.860;2024-03-23T01:43:17;7.00;99.90
19734;DHT22;10018;51.230;7.860;2024-03-23T01:45:42;7.00;99.90
19734;DHT22;10018;51.230;7.860;2024-03-23T01:48:08;7.10;99.90
19734;DHT22;10018;51.230;7.860;2024-03-23T01:50:34;7.00;99.90
19734;DHT22;10018;51.230;7.860;2024-03-23T01:53:02;7.00;99.90
19734;DHT22;10018;51.230;7.860;2024-03-23T01:55:28;7.00;99.90
19734;DHT22;10018;51.230;7.860;2024-03-23T01:57:56;7.10;99.90
19734;DHT22;10018;51.230;7.860;2024-03-23T02:00:22;7.10;99.90
19734;DHT22;10018;51.230;7.860;2024-03-23T02:02:48;7.10;99.90
19734;DHT22;10018;51.230;7.860;2024-03-23T02:05:14;7.10;99.90
19734;DHT22;10018;51.230;7.860;2024-03-23T02:07:42;7.00;99.90
19734;DHT22;10018;51.230;7.860;2024-03-23T02:10:09;7.00;99.90
19734;DHT22;10018;51.230;7.860;2024-03-23T02:12:35;6.90;99.90
19734;DHT22;10018;51.230;7.860;2024-03-23T02:15:01;6.90;99.90
19734;DHT22;10018;51.230;7.860;2024-03-23T02:17:28;6.90;99.90
19734;DHT22;10018;51.230;7.860;2024-03-23T02:19:54;6.90;99.90
19734;DHT22;10018;51.230;7.860;2024-03-23T02:22:24;6.80;99.90
19734;DHT22;10018;51.230;7.860;2024-03-23T02:24:53;6.80;99.90
19734;DHT22;10018;51.230;7.860;2024-03-23T02:27:21;6.80;99.90
19734;DHT22;10018;51.230;7.860;2024-03-23T02:29:47;6.80;99.90
19734;DHT22;10018;51.230;7.860;2024-03-23T02:32:12;6.70;99.90
19734;DHT22;10018;51.230;7.860;2024-03-23T02:34:38;6.60;99.90
19734;DHT22;10018;51.230;7.860;2024-03-23T02:37:10;6.60;99.90
19734;DHT22;10018;51.230;7.860;2024-03-23T02:39:38;6.60;99.90
19734;DHT22;10018;51.230;7.860;2024-03-23T02:42:04;6.60;99.90
19734;DHT22;10018;51.230;7.860;2024-03-23T02:44:29;6.50;99.90
19734;DHT22;10018;51.230;7.860;2024-03-23T02:46:55;6.50;99.90
19734;DHT22;10018;51.230;7.860;2024-03-23T02:49:21;6.50;99.90
19734;DHT22;10018;51.230;7.860;2024-03-23T02:51:47;6.60;99.90
19734;DHT22;10018;51.230;7.860;2024-03-23T02:54:14;6.50;99.90
19734;DHT22;10018;51.230;7.860;2024-03-23T02:56:39;6.40;99.90
19734;DHT22;10018;51.230;7.860;2024-03-23T02:59:05;6.30;99.90
19734;DHT22;10018;51.230;7.860;2024-03-23T03:01:30;6.20;99.90
19734;DHT22;10018;51.230;7.860;2024-03-23T03:03:56;6.20;99.90
19734;DHT22;10018;51.230;7.860;2024-03-23T03:06:25;6.10;99.90
19734;DHT22;10018;51.230;7.860;2024-03-23T03:08:51;6.00;99.90
19734;DHT22;10018;51.230;7.860;2024-03-23T03:11:16;5.90;99.90
19734;DHT22;10018;51.230;7.860;2024-03-23T03:13:42;5.90;99.90
19734;DHT22;10018;51.230;7.860;2024-03-23T03:16:11;5.80;99.90
19734;DHT22;10018;51.230;7.860;2024-03-23T03:18:37;5.70;99.90
19734;DHT22;10018;51.230;7.860;2024-03-23T03:21:04;5.70;99.90
19734;DHT22;10018;51.230;7.860;2024-03-23T03:23:39;5.80;99.90
19734;DHT22;10018;51.230;7.860;2024-03-23T03:26:05;5.70;99.90
19734;DHT22;10018;51.230;7.860;2024-03-23T03:28:33;5.60;99.90
19734;DHT22;10018;51.230;7.860;2024-03-23T03:31:00;5.70;99.90
19734;DHT22;10018;51.230;7.860;2024-03-23T03:33:29;5.70;99.90
19734;DHT22;10018;51.230;7.860;2024-03-23T03:35:55;5.70;99.90
19734;DHT22;10018;51.230;7.860;2024-03-23T03:38:21;5.70;99.90
19734;DHT22;10018;51.230;7.860;2024-03-23T03:40:46;5.70;99.90
19734;DHT22;10018;51.230;7.860;2024-03-23T03:43:12;5.80;99.90
19734;DHT22;10018;51.230;7.860;2024-03-23T03:45:38;5.80;99.90
19734;DHT22;10018;51.230;7.860;2024-03-23T03:48:03;5.70;99.90
19734;DHT22;10018;51.230;7.860;2024-03-23T03:50:29;5.60;99.90
19734;DHT22;10018;51.230;7.860;2024-03-23T03:52:55;5.60;99.90
19734;DHT22;10018;51.230;7.860;2024-03-23T03:55:21;5.50;99.90
19734;DHT22;10018;51.230;7.860;2024-03-23T03:57:47;5.50;99.90
19734;DHT22;10018;51.230;7.860;2024-03-23T04:00:15;5.50;99.90
19734;DHT22;10018;51.230;7.860;2024-03-23T04:02:41;5.40;99.90
19734;DHT22;10018;51.230;7.860;2024-03-23T04:05:07;5.40;99.90
19734;DHT22;10018;51.230;7.860;2024-03-23T04:07:33;5.30;99.90
19734;DHT22;10018;51.230;7.860;2024-03-23T04:10:01;5.40;99.90
19734;DHT22;10018;51.230;7.860;2024-03-23T04:12:30;5.40;99.90
19734;DHT22;10018;51.230;7.860;2024-03-23T04:14:58;5.40;99.90
19734;DHT22;10018;51.230;7.860;2024-03-23T04:17:24;5.40;99.90
19734;DHT22;10018;51.230;7.860;2024-03-23T04:19:50;5.40;99.90
19734;DHT22;10018;51.230;7.860;2024-03-23T04:22:17;5.30;99.90
19734;DHT22;10018;51.230;7.860;2024-03-23T04:24:43;5.30;99.90
19734;DHT22;10018;51.230;7.860;2024-03-23T04:27:08;5.30;99.90
19734;DHT22;10018;51.230;7.860;2024-03-23T04:29:34;5.30;99.90
19734;DHT22;10018;51.230;7.860;2024-03-23T04:32:02;5.30;99.90
19734;DHT22;10018;51.230;7.860;2024-03-23T04:34:27;5.20;99.90
19734;DHT22;10018;51.230;7.860;2024-03-23T04:36:53;5.30;99.90
19734;DHT22;10018;51.230;7.860;2024-03-23T04:39:19;5.20;99.90
19734;DHT22;10018;51.230;7.860;2024-03-23T04:41:45;5.20;99.90
19734;DHT22;10018;51.230;7.860;2024-03-23T04:44:10;5.20;99.90
19734;DHT22;10018;51.230;7.860;2024-03-23T04:46:36;5.20;99.90
19734;DHT22;10018;51.230;7.860;2024-03-23T04:49:01;5.20;99.90
19734;DHT22;10018;51.230;7.860;2024-03-23T04:51:38;5.20;99.90
19734;DHT22;10018;51.230;7.860;2024-03-23T04:54:04;5.20;99.90
19734;DHT22;10018;51.230;7.860;2024-03-23T04:56:31;5.20;99.90
19734;DHT22;10018;51.230;7.860;2024-03-23T04:58:57;5.10;99.90
19734;DHT22;10018;51.230;7.860;2024-03-23T05:01:27;5.10;99.90
19734;DHT22;10018;51.230;7.860;2024-03-23T05:03:52;5.10;99.90
19734;DHT22;10018;51.230;7.860;2024-03-23T05:06:20;5.20;99.90
19734;DHT22;10018;51.230;7.860;2024-03-23T05:08:48;5.20;99.90
19734;DHT22;10018;51.230;7.860;2024-03-23T05:11:13;5.10;99.90
19734;DHT22;10018;51.230;7.860;2024-03-23T05:13:39;5.00;99.90
19734;DHT22;10018;51.230;7.860;2024-03-23T05:16:07;5.10;99.90
19734;DHT22;10018;51.230;7.860;2024-03-23T05:18:34;5.00;99.90
19734;DHT22;10018;51.230;7.860;2024-03-23T05:21:00;5.00;99.90
19734;DHT22;10018;51.230;7.860;2024-03-23T05:23:26;4.90;99.90
19734;DHT22;10018;51.230;7.860;2024-03-23T05:25:51;4.90;99.90
19734;DHT22;10018;51.230;7.860;2024-03-23T05:28:18;5.00;99.90
19734;DHT22;10018;51.230;7.860;2024-03-23T05:30:43;5.00;99.90
19734;DHT22;10018;51.230;7.860;2024-03-23T05:33:09;5.10;99.90
19734;DHT22;10018;51.230;7.860;2024-03-23T05:35:34;5.10;99.90
19734;DHT22;10018;51.230;7.860;2024-03-23T05:38:00;5.10;99.90
19734;DHT22;10018;51.230;7.860;2024-03-23T05:40:26;5.10;99.90
19734;DHT22;10018;51.230;7.860;2024-03-23T05:42:52;5.20;99.90
19734;DHT22;10018;51.230;7.860;2024-03-23T05:45:21;5.20;99.90
19734;DHT22;10018;51.230;7.860;2024-03-23T05:47:50;5.20;99.90
19734;DHT22;10018;51.230;7.860;2024-03-23T05:50:16;5.20;99.90
19734;DHT22;10018;51.230;7.860;2024-03-23T05:52:43;5.20;99.90
19734;DHT22;10018;51.230;7.860;2024-03-23T05:55:09;5.20;99.90
19734;DHT22;10018;51.230;7.860;2024-03-23T05:57:34;5.20;99.90
19734;DHT22;10018;51.230;7.860;2024-03-23T06:00:00;5.20;99.90
19734;DHT22;10018;51.230;7.860;2024-03-23T06:02:25;5.20;99.90
19734;DHT22;10018;51.230;7.860;2024-03-23T06:04:51;5.20;99.90
19734;DHT22;10018;51.230;7.860;2024-03-23T06:07:16;5.30;99.90
19734;DHT22;10018;51.230;7.860;2024-03-23T06:09:42;5.30;99.90
19734;DHT22;10018;51.230;7.860;2024-03-23T06:12:08;5.30;99.90
19734;DHT22;10018;51.230;7.860;2024-03-23T06:14:37;5.30;99.90
19734;DHT22;10018;51.230;7.860;2024-03-23T06:17:02;5.30;99.90
19734;DHT22;10018;51.230;7.860;2024-03-23T06:19:28;5.30;99.90
19734;DHT22;10018;51.230;7.860;2024-03-23T06:21:54;5.30;99.90
19734;DHT22;10018;51.230;7.860;2024-03-23T06:24:21;5.30;99.90
19734;DHT22;10018;51.230;7.860;2024-03-23T06:26:47;5.30;99.90
19734;DHT22;10018;51.230;7.860;2024-03-23T06:29:12;5.30;99.90
19734;DHT22;10018;51.230;7.860;2024-03-23T06:31:38;5.40;99.90
19734;DHT22;10018;51.230;7.860;2024-03-23T06:34:04;5.40;99.90
19734;DHT22;10018;51.230;7.860;2024-03-23T06:36:30;5.40;99.90
19734;DHT22;10018;51.230;7.860;2024-03-23T06:38:56;5.50;99.90
19734;DHT22;10018;51.230;7.860;2024-03-23T06:41:22;5.50;99.90
19734;DHT22;10018;51.230;7.860;2024-03-23T06:43:48;5.50;99.90
19734;DHT22;10018;51.230;7.860;2024-03-23T06:46:16;5.50;99.90
19734;DHT22;10018;51.230;7.860;2024-03-23T06:48:41;5.50;99.90
19734;DHT22;10018;51.230;7.860;2024-03-23T06:51:07;5.40;99.90
19734;DHT22;10018;51.230;7.860;2024-03-23T06:53:32;5.40;99.90
19734;DHT22;10018;51.230;7.860;2024-03-23T06:55:58;5.30;99.90
19734;DHT22;10018;51.230;7.860;2024-03-23T06:58:24;5.20;99.90
19734;DHT22;10018;51.230;7.860;2024-03-23T07:00:50;5.20;99.90
19734;DHT22;10018;51.230;7.860;2024-03-23T07:03:19;5.20;99.90
19734;DHT22;10018;51.230;7.860;2024-03-23T07:05:45;5.10;99.90
19734;DHT22;10018;51.230;7.860;2024-03-23T07:08:11;5.00;99.90
19734;DHT22;10018;51.230;7.860;2024-03-23T07:10:39;5.10;99.90
19734;DHT22;10018;51.230;7.860;2024-03-23T07:13:05;5.10;99.90
19734;DHT22;10018;51.230;7.860;2024-03-23T07:15:31;5.10;99.90
19734;DHT22;10018;51.230;7.860;2024-03-23T07:17:56;5.10;99.90
19734;DHT22;10018;51.230;7.860;2024-03-23T07:20:22;5.10;99.90
19734;DHT22;10018;51.230;7.860;2024-03-23T07:22:48;5.10;99.90
19734;DHT22;10018;51.230;7.860;2024-03-23T07:25:14;5.10;99.90
19734;DHT22;10018;51.230;7.860;2024-03-23T07:27:40;5.10;99.90
19734;DHT22;10018;51.230;7.860;2024-03-23T07:30:06;5.10;99.90
19734;DHT22;10018;51.230;7.860;2024-03-23T07:32:32;5.10;99.90
19734;DHT22;10018;51.230;7.860;2024-03-23T07:34:57;5.20;99.90
19734;DHT22;10018;51.230;7.860;2024-03-23T07:37:23;5.20;99.90
19734;DHT22;10018;51.230;7.860;2024-03-23T07:39:48;5.20;99.90
19734;DHT22;10018;51.230;7.860;2024-03-23T07:42:14;5.20;99.90
19734;DHT22;10018;51.230;7.860;2024-03-23T07:44:40;5.20;99.90
19734;DHT22;10018;51.230;7.860;2024-03-23T07:47:05;5.20;99.90
19734;DHT22;10018;51.230;7.860;2024-03-23T07:49:31;5.30;99.90
19734;DHT22;10018;51.230;7.860;2024-03-23T07:51:56;5.30;99.90
19734;DHT22;10018;51.230;7.860;2024-03-23T07:54:22;5.40;99.90
19734;DHT22;10018;51.230;7.860;2024-03-23T07:56:47;5.50;99.90
19734;DHT22;10018;51.230;7.860;2024-03-23T07:59:13;5.60;99.90
19734;DHT22;10018;51.230;7.860;2024-03-23T08:01:38;5.80;99.90
19734;DHT22;10018;51.230;7.860;2024-03-23T08:04:07;6.00;99.90
19734;DHT22;10018;51.230;7.860;2024-03-23T08:06:32;5.90;99.90
19734;DHT22;10018;51.230;7.860;2024-03-23T08:08:58;6.00;99.90
19734;DHT22;10018;51.230;7.860;2024-03-23T08:11:28;6.20;99.90
19734;DHT22;10018;51.230;7.860;2024-03-23T08:13:54;6.30;99.90
19734;DHT22;10018;51.230;7.860;2024-03-23T08:16:20;6.50;99.90
19734;DHT22;10018;51.230;7.860;2024-03-23T08:18:46;6.60;99.90
19734;DHT22;10018;51.230;7.860;2024-03-23T08:21:12;6.70;99.90
19734;DHT22;10018;51.230;7.860;2024-03-23T08:23:38;6.80;99.90
19734;DHT22;10018;51.230;7.860;2024-03-23T08:26:05;7.00;99.90
19734;DHT22;10018;51.230;7.860;2024-03-23T08:28:31;7.10;99.90
19734;DHT22;10018;51.230;7.860;2024-03-23T08:31:01;7.30;99.90
19734;DHT22;10018;51.230;7.860;2024-03-23T08:33:26;7.30;99.90
19734;DHT22;10018;51.230;7.860;2024-03-23T08:38:24;7.20;99.90
19734;DHT22;10018;51.230;7.860;2024-03-23T08:40:59;7.20;99.90
19734;DHT22;10018;51.230;7.860;2024-03-23T08:43:25;7.30;99.90
19734;DHT22;10018;51.230;7.860;2024-03-23T08:46:03;7.30;99.90
19734;DHT22;10018;51.230;7.860;2024-03-23T08:48:28;7.50;99.90
19734;DHT22;10018;51.230;7.860;2024-03-23T08:53:30;7.60;99.90
19734;DHT22;10018;51.230;7.860;2024-03-23T08:55:57;7.70;99.90
19734;DHT22;10018;51.230;7.860;2024-03-23T08:58:24;7.70;99.90
19734;DHT22;10018;51.230;7.860;2024-03-23T09:00:51;7.70;99.90
19734;DHT22;10018;51.230;7.860;2024-03-23T09:03:17;7.80;99.90
19734;DHT22;10018;51.230;7.860;2024-03-23T09:05:43;7.70;99.90
19734;DHT22;10018;51.230;7.860;2024-03-23T09:08:11;7.70;99.90
19734;DHT22;10018;51.230;7.860;2024-03-23T09:10:39;7.60;99.90
19734;DHT22;10018;51.230;7.860;2024-03-23T09:13:06;7.60;99.90
19734;DHT22;10018;51.230;7.860;2024-03-23T09:15:36;7.70;99.90
19734;DHT22;10018;51.230;7.860;2024-03-23T09:18:06;7.90;99.90
19734;DHT22;10018;51.230;7.860;2024-03-23T09:20:35;8.10;99.90
19734;DHT22;10018;51.230;7.860;2024-03-23T09:23:03;8.20;99.90
19734;DHT22;10018;51.230;7.860;2024-03-23T09:25:28;8.20;99.90
19734;DHT22;10018;51.230;7.860;2024-03-23T09:27:54;8.10;99.90
19734;DHT22;10018;51.230;7.860;2024-03-23T09:30:19;8.30;99.90
19734;DHT22;10018;51.230;7.860;2024-03-23T09:32:45;8.40;99.90
19734;DHT22;10018;51.230;7.860;2024-03-23T09:35:11;8.30;99.90
19734;DHT22;10018;51.230;7.860;2024-03-23T09:37:38;8.30;99.90
19734;DHT22;10018;51.230;7.860;2024-03-23T09:40:09;8.10;99.90
19734;DHT22;10018;51.230;7.860;2024-03-23T09:42:37;7.90;99.90
19734;DHT22;10018;51.230;7.860;2024-03-23T09:45:06;7.90;99.90
19734;DHT22;10018;51.230;7.860;2024-03-23T09:47:32;8.00;99.90
19734;DHT22;10018;51.230;7.860;2024-03-23T09:49:59;8.10;99.90
19734;DHT22;10018;51.230;7.860;2024-03-23T09:52:25;8.20;99.90
19734;DHT22;10018;51.230;7.860;2024-03-23T09:54:50;8.40;99.90
19734;DHT22;10018;51.230;7.860;2024-03-23T09:57:16;8.30;99.90
19734;DHT22;10018;51.230;7.860;2024-03-23T09:59:43;8.20;99.90
19734;DHT22;10018;51.230;7.860;2024-03-23T10:02:09;8.20;99.90
19734;DHT22;10018;51.230;7.860;2024-03-23T10:04:40;8.10;99.90
19734;DHT22;10018;51.230;7.860;2024-03-23T10:07:15;7.80;99.90
19734;DHT22;10018;51.230;7.860;2024-03-23T10:09:42;6.50;99.90
19734;DHT22;10018;51.230;7.860;2024-03-23T10:12:13;5.60;99.90
19734;DHT22;10018;51.230;7.860;2024-03-23T10:14:43;4.90;99.90
19734;DHT22;10018;51.230;7.860;2024-03-23T10:17:22;4.70;99.90
19734;DHT22;10018;51.230;7.860;2024-03-23T10:19:52;4.40;99.90
19734;DHT22;10018;51.230;7.860;2024-03-23T10:22:22;4.30;99.90
19734;DHT22;10018;51.230;7.860;2024-03-23T10:24:48;4.30;99.90
19734;DHT22;10018;51.230;7.860;2024-03-23T10:27:21;4.40;99.90
19734;DHT22;10018;51.230;7.860;2024-03-23T10:29:49;4.50;99.90
19734;DHT22;10018;51.230;7.860;2024-03-23T10:32:16;4.70;99.90
19734;DHT22;10018;51.230;7.860;2024-03-23T10:34:43;4.80;99.90
19734;DHT22;10018;51.230;7.860;2024-03-23T10:37:09;4.90;99.90
19734;DHT22;10018;51.230;7.860;2024-03-23T10:39:37;5.00;99.90
19734;DHT22;10018;51.230;7.860;2024-03-23T10:42:07;5.20;99.90
19734;DHT22;10018;51.230;7.860;2024-03-23T10:44:34;5.40;99.90
19734;DHT22;10018;51.230;7.860;2024-03-23T10:47:01;5.80;99.90
19734;DHT22;10018;51.230;7.860;2024-03-23T10:49:35;6.10;99.90
19734;DHT22;10018;51.230;7.860;2024-03-23T10:52:02;6.20;99.90
19734;DHT22;10018;51.230;7.860;2024-03-23T10:54:30;6.30;99.90
19734;DHT22;10018;51.230;7.860;2024-03-23T10:57:17;6.50;99.90
19734;DHT22;10018;51.230;7.860;2024-03-23T10:59:45;6.70;99.90
19734;DHT22;10018;51.230;7.860;2024-03-23T11:02:19;6.90;99.90
19734;DHT22;10018;51.230;7.860;2024-03-23T11:04:45;7.20;99.90
19734;DHT22;10018;51.230;7.860;2024-03-23T11:07:29;7.30;99.90
19734;DHT22;10018;51.230;7.860;2024-03-23T11:09:55;7.50;99.90
19734;DHT22;10018;51.230;7.860;2024-03-23T11:14:59;7.40;99.90
19734;DHT22;10018;51.230;7.860;2024-03-23T11:17:26;7.50;99.90
19734;DHT22;10018;51.230;7.860;2024-03-23T11:20:05;7.60;99.90
19734;DHT22;10018;51.230;7.860;2024-03-23T11:25:11;7.60;99.90
19734;DHT22;10018;51.230;7.860;2024-03-23T11:27:37;7.30;99.90
19734;DHT22;10018;51.230;7.860;2024-03-23T11:30:22;7.20;99.90
19734;DHT22;10018;51.230;7.860;2024-03-23T11:32:53;7.30;99.90
19734;DHT22;10018;51.230;7.860;2024-03-23T11:35:37;7.60;99.90
19734;DHT22;10018;51.230;7.860;2024-03-23T11:38:06;7.80;99.90
19734;DHT22;10018;51.230;7.860;2024-03-23T11:40:33;7.90;99.90
19734;DHT22;10018;51.230;7.860;2024-03-23T11:43:07;7.90;99.90
19734;DHT22;10018;51.230;7.860;2024-03-23T11:45:37;8.10;99.90
19734;DHT22;10018;51.230;7.860;2024-03-23T11:48:09;8.10;99.90
19734;DHT22;10018;51.230;7.860;2024-03-23T11:50:38;7.90;99.90
19734;DHT22;10018;51.230;7.860;2024-03-23T11:53:22;7.70;99.90
19734;DHT22;10018;51.230;7.860;2024-03-23T11:55:51;7.10;99.90
19734;DHT22;10018;51.230;7.860;2024-03-23T11:58:19;6.00;99.90
19734;DHT22;10018;51.230;7.860;2024-03-23T12:00:51;5.40;99.90
19734;DHT22;10018;51.230;7.860;2024-03-23T12:03:20;5.20;99.90
19734;DHT22;10018;51.230;7.860;2024-03-23T12:05:48;5.10;99.90
19734;DHT22;10018;51.230;7.860;2024-03-23T12:08:45;5.10;99.90
19734;DHT22;10018;51.230;7.860;2024-03-23T12:11:15;5.20;99.90
19734;DHT22;10018;51.230;7.860;2024-03-23T12:13:45;5.40;99.90
19734;DHT22;10018;51.230;7.860;2024-03-23T12:16:17;5.60;99.90
19734;DHT22;10018;51.230;7.860;2024-03-23T12:18:44;6.00;99.90
19734;DHT22;10018;51.230;7.860;2024-03-23T12:21:10;6.40;99.90
19734;DHT22;10018;51.230;7.860;2024-03-23T12:23:38;6.60;99.90
19734;DHT22;10018;51.230;7.860;2024-03-23T12:26:07;6.50;99.90
19734;DHT22;10018;51.230;7.860;2024-03-23T12:28:33;6.60;99.90
19734;DHT22;10018;51.230;7.860;2024-03-23T12:30:59;6.70;99.90
19734;DHT22;10018;51.230;7.860;2024-03-23T12:33:24;7.00;99.90
19734;DHT22;10018;51.230;7.860;2024-03-23T12:35:51;7.30;99.90
19734;DHT22;10018;51.230;7.860;2024-03-23T12:38:17;7.60;99.90
19734;DHT22;10018;51.230;7.860;2024-03-23T12:40:52;7.70;99.90
19734;DHT22;10018;51.230;7.860;2024-03-23T12:43:18;7.90;99.90
19734;DHT22;10018;51.230;7.860;2024-03-23T12:45:47;8.00;99.90
19734;DHT22;10018;51.230;7.860;2024-03-23T12:48:13;7.90;99.90
19734;DHT22;10018;51.230;7.860;2024-03-23T12:50:41;7.90;99.90
19734;DHT22;10018;51.230;7.860;2024-03-23T12:53:07;7.90;99.90
19734;DHT22;10018;51.230;7.860;2024-03-23T12:55:35;8.10;99.90
19734;DHT22;10018;51.230;7.860;2024-03-23T12:58:01;8.20;99.90
19734;DHT22;10018;51.230;7.860;2024-03-23T13:00:26;8.50;99.90
19734;DHT22;10018;51.230;7.860;2024-03-23T13:02:54;8.60;99.90
19734;DHT22;10018;51.230;7.860;2024-03-23T13:05:20;8.70;99.90
19734;DHT22;10018;51.230;7.860;2024-03-23T13:07:46;8.30;99.90
19734;DHT22;10018;51.230;7.860;2024-03-23T13:10:11;7.20;99.90
19734;DHT22;10018;51.230;7.860;2024-03-23T13:12:40;6.60;99.90
19734;DHT22;10018;51.230;7.860;2024-03-23T13:15:06;5.90;99.90
19734;DHT22;10018;51.230;7.860;2024-03-23T13:17:32;5.40;99.90
19734;DHT22;10018;51.230;7.860;2024-03-23T13:19:58;5.40;99.90
19734;DHT22;10018;51.230;7.860;2024-03-23T13:22:23;5.50;99.90
19734;DHT22;10018;51.230;7.860;2024-03-23T13:24:49;5.70;99.90
19734;DHT22;10018;51.230;7.860;2024-03-23T13:27:15;6.10;99.90
19734;DHT22;10018;51.230;7.860;2024-03-23T13:29:40;6.40;99.90
19734;DHT22;10018;51.230;7.860;2024-03-23T13:32:08;6.40;99.90
19734;DHT22;10018;51.230;7.860;2024-03-23T13:34:34;6.30;99.90
19734;DHT22;10018;51.230;7.860;2024-03-23T13:37:01;6.10;99.90
19734;DHT22;10018;51.230;7.860;2024-03-23T13:39:27;6.00;99.90
19734;DHT22;10018;51.230;7.860;2024-03-23T13:41:53;5.80;99.90
19734;DHT22;10018;51.230;7.860;2024-03-23T13:44:19;5.90;99.90
19734;DHT22;10018;51.230;7.860;2024-03-23T13:46:45;6.10;99.90
19734;DHT22;10018;51.230;7.860;2024-03-23T13:49:28;6.20;99.90
19734;DHT22;10018;51.230;7.860;2024-03-23T13:51:57;6.60;99.90
19734;DHT22;10018;51.230;7.860;2024-03-23T13:54:27;6.90;99.90
19734;DHT22;10018;51.230;7.860;2024-03-23T13:56:54;7.30;99.90
19734;DHT22;10018;51.230;7.860;2024-03-23T13:59:23;7.80;99.90
19734;DHT22;10018;51.230;7.860;2024-03-23T14:01:49;7.90;99.90
19734;DHT22;10018;51.230;7.860;2024-03-23T14:04:15;7.90;99.90
19734;DHT22;10018;51.230;7.860;2024-03-23T14:06:42;8.20;99.90
19734;DHT22;10018;51.230;7.860;2024-03-23T14:09:10;8.50;99.90
19734;DHT22;10018;51.230;7.860;2024-03-23T14:11:38;8.60;99.90
19734;DHT22;10018;51.230;7.860;2024-03-23T14:14:05;8.70;99.90
19734;DHT22;10018;51.230;7.860;2024-03-23T14:16:31;8.90;99.90
19734;DHT22;10018;51.230;7.860;2024-03-23T14:18:57;9.60;99.90
19734;DHT22;10018;51.230;7.860;2024-03-23T14:21:23;10.50;99.90
19734;DHT22;10018;51.230;7.860;2024-03-23T14:23:49;11.10;99.90
19734;DHT22;10018;51.230;7.860;2024-03-23T14:26:17;11.40;99.90
19734;DHT22;10018;51.230;7.860;2024-03-23T14:28:45;10.80;99.90
19734;DHT22;10018;51.230;7.860;2024-03-23T14:31:11;10.50;99.90
19734;DHT22;10018;51.230;7.860;2024-03-23T14:33:37;10.00;99.90
19734;DHT22;10018;51.230;7.860;2024-03-23T14:36:06;9.20;99.90
19734;DHT22;10018;51.230;7.860;2024-03-23T14:38:32;8.60;99.90
19734;DHT22;10018;51.230;7.860;2024-03-23T14:40:59;8.50;99.90
19734;DHT22;10018;51.230;7.860;2024-03-23T14:43:25;9.20;99.90
19734;DHT22;10018;51.230;7.860;2024-03-23T14:48:32;10.70;99.90
19734;DHT22;10018;51.230;7.860;2024-03-23T14:51:00;11.40;99.90
19734;DHT22;10018;51.230;7.860;2024-03-23T14:53:26;12.20;99.90
19734;DHT22;10018;51.230;7.860;2024-03-23T14:55:58;12.20;99.90
19734;DHT22;10018;51.230;7.860;2024-03-23T14:58:25;12.70;99.90
19734;DHT22;10018;51.230;7.860;2024-03-23T15:00:51;12.60;99.90
19734;DHT22;10018;51.230;7.860;2024-03-23T15:03:17;12.30;99.90
19734;DHT22;10018;51.230;7.860;2024-03-23T15:05:55;12.50;99.90
19734;DHT22;10018;51.230;7.860;2024-03-23T15:08:21;12.40;99.90
19734;DHT22;10018;51.230;7.860;2024-03-23T15:10:46;12.70;99.90
19734;DHT22;10018;51.230;7.860;2024-03-23T15:13:12;12.70;99.90
19734;DHT22;10018;51.230;7.860;2024-03-23T15:15:39;11.60;99.90
19734;DHT22;10018;51.230;7.860;2024-03-23T15:18:09;10.10;99.90
19734;DHT22;10018;51.230;7.860;2024-03-23T15:20:38;9.80;99.90
19734;DHT22;10018;51.230;7.860;2024-03-23T15:23:06;9.10;99.90
19734;DHT22;10018;51.230;7.860;2024-03-23T15:25:31;9.70;99.90
19734;DHT22;10018;51.230;7.860;2024-03-23T15:27:57;10.20;99.90
19734;DHT22;10018;51.230;7.860;2024-03-23T15:30:26;10.20;99.90
19734;DHT22;10018;51.230;7.860;2024-03-23T15:32:52;10.20;99.90
19734;DHT22;10018;51.230;7.860;2024-03-23T15:35:18;9.70;99.90
19734;DHT22;10018;51.230;7.860;2024-03-23T15:37:44;9.00;99.90
19734;DHT22;10018;51.230;7.860;2024-03-23T15:40:10;8.60;99.90
19734;DHT22;10018;51.230;7.860;2024-03-23T15:42:37;8.30;99.90
19734;DHT22;10018;51.230;7.860;2024-03-23T15:45:05;7.90;99.90
19734;DHT22;10018;51.230;7.860;2024-03-23T15:47:32;7.70;99.90
19734;DHT22;10018;51.230;7.860;2024-03-23T15:49:58;7.50;99.90
19734;DHT22;10018;51.230;7.860;2024-03-23T15:52:23;7.40;99.90
19734;DHT22;10018;51.230;7.860;2024-03-23T15:54:49;7.40;99.90
19734;DHT22;10018;51.230;7.860;2024-03-23T15:57:14;7.20;99.90
19734;DHT22;10018;51.230;7.860;2024-03-23T15:59:41;7.10;99.90
19734;DHT22;10018;51.230;7.860;2024-03-23T16:02:06;6.90;99.90
19734;DHT22;10018;51.230;7.860;2024-03-23T16:04:32;6.70;99.90
19734;DHT22;10018;51.230;7.860;2024-03-23T16:06:57;6.60;99.90
19734;DHT22;10018;51.230;7.860;2024-03-23T16:09:23;6.60;99.90
19734;DHT22;10018;51.230;7.860;2024-03-23T16:11:49;6.60;99.90
19734;DHT22;10018;51.230;7.860;2024-03-23T16:14:14;6.50;99.90
19734;DHT22;10018;51.230;7.860;2024-03-23T16:16:40;6.40;99.90
19734;DHT22;10018;51.230;7.860;2024-03-23T16:19:05;6.40;99.90
19734;DHT22;10018;51.230;7.860;2024-03-23T16:21:31;6.40;99.90
19734;DHT22;10018;51.230;7.860;2024-03-23T16:23:57;6.50;99.90
19734;DHT22;10018;51.230;7.860;2024-03-23T16:26:23;6.60;99.90
19734;DHT22;10018;51.230;7.860;2024-03-23T16:28:49;7.30;99.90
19734;DHT22;10018;51.230;7.860;2024-03-23T16:31:15;7.90;99.90
19734;DHT22;10018;51.230;7.860;2024-03-23T16:33:42;9.10;99.90
19734;DHT22;10018;51.230;7.860;2024-03-23T16:36:09;10.50;99.90
19734;DHT22;10018;51.230;7.860;2024-03-23T16:38:36;11.70;99.90
19734;DHT22;10018;51.230;7.860;2024-03-23T16:43:32;13.60;99.90
19734;DHT22;10018;51.230;7.860;2024-03-23T16:46:08;13.20;99.90
19734;DHT22;10018;51.230;7.860;2024-03-23T16:48:39;13.00;99.90
19734;DHT22;10018;51.230;7.860;2024-03-23T16:51:09;12.00;99.90
19734;DHT22;10018;51.230;7.860;2024-03-23T16:53:35;10.20;99.90